Time;durP1;ratioP1;P1;durP2;ratioP2;P2;SDS_P1;SDS_P2;PMS_P1;PMS_P2;Temp;Humidity;BMP_temperature;BMP_pressure;BME280_temperature;BME280_humidity;BME280_pressure;Samples;Min_cycle;Max_cycle;Signal;HPM_P1;HPM_P2
2022/09/06 00:01:45;;;;;;;2.22;1.50;;;26.30;64.00;;;;;;4967003;28;20114;-90
2022/09/06 00:04:11;;;;;;;3.83;1.83;;;26.30;64.00;;;;;;4982269;28;20110;-89
2022/09/06 00:06:36;;;;;;;5.75;2.15;;;26.30;64.10;;;;;;4949645;28;20027;-89
2022/09/06 00:09:02;;;;;;;4.07;1.63;;;26.30;64.20;;;;;;4982242;28;20035;-90
2022/09/06 00:11:28;;;;;;;4.13;2.00;;;26.20;64.30;;;;;;4982025;28;20027;-89
2022/09/06 00:13:53;;;;;;;3.92;2.05;;;26.20;64.40;;;;;;4965899;28;20077;-90
2022/09/06 00:16:22;;;;;;;3.92;1.95;;;26.20;64.50;;;;;;4981412;28;20030;-89
2022/09/06 00:18:48;;;;;;;4.18;1.90;;;26.20;64.60;;;;;;4981313;28;20026;-90
2022/09/06 00:21:26;;;;;;;3.65;2.10;;;26.20;64.80;;;;;;4981705;28;20039;-90
2022/09/06 00:23:52;;;;;;;4.47;2.00;;;26.10;64.90;;;;;;4981313;28;20488;-90
2022/09/06 00:26:19;;;;;;;2.80;1.80;;;26.10;65.00;;;;;;4981775;28;20081;-90
2022/09/06 00:28:45;;;;;;;3.47;2.00;;;26.10;65.20;;;;;;4981608;28;20133;-91
2022/09/06 00:31:29;;;;;;;3.85;1.75;;;26.00;65.20;;;;;;4982228;28;20460;-90
2022/09/06 00:33:54;;;;;;;3.05;1.83;;;26.00;65.60;;;;;;4981901;28;20026;-90
2022/09/06 00:36:21;;;;;;;3.85;1.70;;;26.00;65.50;;;;;;4981930;28;20023;-91
2022/09/06 00:38:46;;;;;;;3.53;2.00;;;26.00;65.60;;;;;;4978251;28;20408;-89
2022/09/06 00:41:14;;;;;;;3.92;1.90;;;25.90;65.70;;;;;;4981422;28;20022;-91
2022/09/06 00:43:41;;;;;;;2.53;1.50;;;25.90;65.90;;;;;;4981811;28;20031;-91
2022/09/06 00:46:10;;;;;;;4.05;1.85;;;25.90;66.20;;;;;;4983005;28;20113;-90
2022/09/06 00:48:38;;;;;;;2.15;1.80;;;25.90;66.60;;;;;;4981747;28;20022;-92
2022/09/06 00:51:06;;;;;;;4.20;1.90;;;25.90;67.10;;;;;;4981614;28;20472;-91
2022/09/06 00:53:32;;;;;;;3.83;1.67;;;25.80;67.50;;;;;;4981700;28;20042;-90
2022/09/06 00:55:59;;;;;;;4.10;2.25;;;25.80;68.20;;;;;;4981770;28;20023;-91
2022/09/06 00:58:25;;;;;;;4.38;2.08;;;25.80;68.70;;;;;;4981686;28;20031;-93
2022/09/06 01:00:51;;;;;;;4.65;1.98;;;25.80;69.00;;;;;;4981813;28;20027;-91
2022/09/06 01:03:18;;;;;;;3.10;1.77;;;25.70;69.40;;;;;;4981872;28;20118;-90
2022/09/06 01:05:55;;;;;;;3.53;1.85;;;25.60;69.00;;;;;;4981881;28;20022;-92
2022/09/06 01:08:26;;;;;;;3.00;1.80;;;25.40;69.50;;;;;;4965831;28;20058;-94
2022/09/06 01:11:15;;;;;;;3.28;1.98;;;25.30;70.40;;;;;;4980154;28;20065;-92
2022/09/06 01:14:06;;;;;;;4.38;1.92;;;25.20;71.70;;;;;;4962904;28;20091;-95
2022/09/06 01:16:42;;;;;;;6.05;2.42;;;25.10;72.80;;;;;;4962558;28;20030;-94
2022/09/06 01:19:35;;;;;;;5.25;2.33;;;25.10;73.60;;;;;;4978683;28;20492;-94
2022/09/06 01:22:27;;;;;;;5.22;2.40;;;25.00;74.20;;;;;;4962382;28;20050;-94
2022/09/06 01:28:45;;;;;;;4.43;2.13;;;25.00;75.60;;;;;;4980835;28;20030;-94
2022/09/06 01:31:34;;;;;;;4.28;2.25;;;24.90;76.10;;;;;;4963324;28;20043;-92
2022/09/06 01:34:02;;;;;;;4.22;2.58;;;24.90;76.60;;;;;;4962489;28;20031;-95
2022/09/06 01:36:35;;;;;;;5.07;2.30;;;24.80;76.20;;;;;;4963206;28;20078;-95
2022/09/06 01:39:01;;;;;;;5.22;2.50;;;24.70;76.70;;;;;;4979309;28;20023;-96
2022/09/06 01:41:28;;;;;;;3.83;2.72;;;24.70;76.80;;;;;;4980140;28;20469;-96
2022/09/06 01:43:55;;;;;;;4.05;2.15;;;24.60;77.20;;;;;;4979101;28;20026;-96
2022/09/06 01:46:44;;;;;;;4.45;2.60;;;24.60;77.60;;;;;;4978652;28;20326;-96
2022/09/06 01:50:05;;;;;;;3.72;2.58;;;24.50;78.30;;;;;;4963640;28;20034;-95
2022/09/06 01:52:39;;;;;;;3.88;2.40;;;24.50;79.30;;;;;;4936680;28;20038;-95
2022/09/06 01:55:23;;;;;;;5.35;2.63;;;24.40;78.80;;;;;;4978012;28;20019;-95
2022/09/06 01:58:13;;;;;;;5.20;2.80;;;24.40;79.80;;;;;;4963919;28;20039;-93
2022/09/06 02:01:00;;;;;;;5.07;2.80;;;24.40;80.20;;;;;;4958721;29;20031;-92
2022/09/06 02:03:36;;;;;;;3.83;2.70;;;24.30;80.10;;;;;;4976097;28;20086;-93
2022/09/06 02:06:15;;;;;;;7.97;3.15;;;24.30;80.80;;;;;;4977663;28;20023;-95
2022/09/06 02:12:04;;;;;;;6.82;3.42;;;24.20;82.70;;;;;;4978732;28;20033;-95
2022/09/06 02:14:39;;;;;;;5.28;3.40;;;24.10;82.90;;;;;;4964064;28;20042;-94
2022/09/06 02:17:08;;;;;;;5.55;3.10;;;24.00;84.00;;;;;;4980061;28;20035;-96
2022/09/06 02:19:55;;;;;;;5.97;3.30;;;24.00;85.20;;;;;;4979591;28;20023;-95
2022/09/06 02:22:26;;;;;;;6.80;3.30;;;23.80;86.10;;;;;;4978173;28;20051;-94
2022/09/06 02:24:53;;;;;;;4.68;3.20;;;23.70;86.40;;;;;;4977702;28;20026;-95
2022/09/06 02:27:19;;;;;;;5.38;3.55;;;23.60;86.70;;;;;;4978849;28;20059;-95
2022/09/06 02:29:45;;;;;;;5.38;3.53;;;23.50;87.40;;;;;;4977867;28;20036;-95
2022/09/06 02:32:21;;;;;;;5.80;3.03;;;23.40;88.10;;;;;;4978029;28;20026;-95
2022/09/06 02:34:50;;;;;;;5.82;3.80;;;23.40;88.50;;;;;;4977766;28;20109;-95
2022/09/06 02:37:16;;;;;;;4.68;3.17;;;23.30;89.00;;;;;;4977458;28;20118;-96
2022/09/06 02:39:42;;;;;;;5.53;3.40;;;23.20;89.50;;;;;;4977292;28;20037;-94
2022/09/06 02:42:14;;;;;;;6.43;3.50;;;23.20;90.00;;;;;;4978032;28;20121;-95
2022/09/06 02:44:40;;;;;;;4.57;3.20;;;23.10;90.20;;;;;;4977377;28;20031;-95
2022/09/06 02:47:06;;;;;;;5.00;3.33;;;23.10;90.30;;;;;;4959970;28;20050;-95
2022/09/06 02:49:32;;;;;;;4.97;3.38;;;22.90;90.40;;;;;;4976610;28;20019;-94
2022/09/06 02:51:57;;;;;;;5.15;3.35;;;23.00;90.60;;;;;;4976670;28;20026;-94
2022/09/06 02:54:24;;;;;;;6.00;3.33;;;22.90;90.80;;;;;;4977015;28;20031;-95
2022/09/06 02:56:49;;;;;;;6.00;3.20;;;22.80;90.80;;;;;;4976670;28;20380;-94
2022/09/06 02:59:15;;;;;;;4.55;3.20;;;22.80;90.90;;;;;;4945417;28;20023;-94
2022/09/06 03:01:41;;;;;;;4.32;3.10;;;22.80;91.00;;;;;;4960613;28;20030;-94
2022/09/06 03:04:07;;;;;;;5.18;2.75;;;22.80;91.10;;;;;;4976864;28;20023;-94
2022/09/06 03:06:33;;;;;;;4.40;3.22;;;22.70;91.20;;;;;;4976921;28;20026;-94
2022/09/06 03:08:59;;;;;;;4.68;3.60;;;22.70;91.40;;;;;;4944808;28;20026;-95
2022/09/06 03:11:25;;;;;;;5.13;3.00;;;22.70;91.60;;;;;;4976640;28;20022;-93
2022/09/06 03:13:51;;;;;;;4.80;3.53;;;22.70;91.70;;;;;;4945009;28;20038;-94
2022/09/06 03:16:18;;;;;;;4.53;3.10;;;22.70;92.10;;;;;;4945183;28;20027;-94
2022/09/06 03:18:44;;;;;;;8.10;3.85;;;22.70;92.10;;;;;;4977028;28;20026;-95
2022/09/06 03:21:10;;;;;;;20.20;4.05;;;22.70;92.30;;;;;;4930171;28;20038;-95
2022/09/06 03:23:38;;;;;;;5.68;4.10;;;22.60;92.40;;;;;;4973058;28;20135;-95
2022/09/06 03:26:05;;;;;;;14.98;4.00;;;22.60;92.40;;;;;;4957765;28;20046;-95
2022/09/06 03:28:31;;;;;;;5.63;3.70;;;22.60;92.50;;;;;;4957221;28;20043;-94
2022/09/06 03:30:57;;;;;;;6.22;3.95;;;22.60;92.70;;;;;;4973628;28;20019;-94
2022/09/06 03:33:23;;;;;;;8.43;4.28;;;22.60;92.70;;;;;;4957297;28;20473;-94
2022/09/06 03:35:52;;;;;;;7.93;4.25;;;22.60;92.80;;;;;;4957370;28;20023;-95
2022/09/06 03:38:18;;;;;;;5.65;4.38;;;22.60;92.90;;;;;;4973077;28;20038;-93
2022/09/06 03:40:45;;;;;;;7.50;4.10;;;22.60;92.90;;;;;;4973052;28;20023;-95
2022/09/06 03:43:11;;;;;;;9.50;4.38;;;22.60;93.00;;;;;;4957221;29;20099;-94
2022/09/06 03:45:37;;;;;;;6.45;4.30;;;22.50;93.10;;;;;;4973057;28;20062;-93
2022/09/06 03:48:02;;;;;;;6.18;4.30;;;22.60;93.10;;;;;;4972002;28;20023;-94
2022/09/06 03:50:28;;;;;;;6.75;4.07;;;22.50;93.10;;;;;;4956507;29;20121;-96
2022/09/06 03:52:54;;;;;;;7.38;4.78;;;22.50;93.20;;;;;;4956799;28;20031;-95
2022/09/06 03:55:19;;;;;;;8.07;4.72;;;22.50;93.30;;;;;;4957334;28;20039;-95
2022/09/06 03:57:45;;;;;;;6.30;4.30;;;22.40;93.50;;;;;;4956975;28;20038;-95
2022/09/06 04:00:11;;;;;;;14.10;4.78;;;22.30;93.50;;;;;;4972534;28;20030;-95
2022/09/06 04:02:37;;;;;;;6.38;4.93;;;22.30;93.60;;;;;;4972656;28;20028;-95
2022/09/06 04:05:03;;;;;;;7.15;4.63;;;22.20;93.50;;;;;;4974103;28;20038;-94
2022/09/06 04:07:29;;;;;;;8.57;5.15;;;21.90;93.40;;;;;;4973333;28;20516;-93
2022/09/06 04:09:54;;;;;;;9.18;5.28;;;21.80;93.70;;;;;;4957242;28;20031;-95
2022/09/06 04:12:20;;;;;;;6.80;4.80;;;21.70;93.90;;;;;;4973474;28;20108;-94
2022/09/06 04:14:46;;;;;;;7.25;5.05;;;21.70;94.20;;;;;;4958405;28;20031;-94
2022/09/06 04:17:13;;;;;;;6.78;4.20;;;21.70;94.40;;;;;;4973349;28;20024;-95
2022/09/06 04:19:39;;;;;;;6.75;4.60;;;21.70;94.50;;;;;;4957349;28;20039;-94
2022/09/06 04:22:05;;;;;;;7.45;4.47;;;21.70;94.50;;;;;;4945366;29;20044;-95
2022/09/06 04:24:30;;;;;;;7.10;4.88;;;21.70;94.50;;;;;;4969007;29;20114;-93
2022/09/06 04:26:56;;;;;;;6.32;4.78;;;21.70;94.50;;;;;;4966181;29;20032;-95
2022/09/06 04:29:22;;;;;;;8.38;5.00;;;21.70;94.50;;;;;;4964572;28;20051;-93
2022/09/06 04:31:47;;;;;;;6.40;4.40;;;21.80;94.60;;;;;;4960434;29;20055;-94
2022/09/06 04:34:15;;;;;;;7.72;4.50;;;21.80;94.60;;;;;;4958690;29;20031;-93
2022/09/06 04:36:41;;;;;;;8.38;5.35;;;21.80;94.60;;;;;;4948714;29;20031;-95
2022/09/06 04:39:07;;;;;;;5.30;4.20;;;21.90;94.60;;;;;;4962051;29;20417;-94
2022/09/06 04:41:32;;;;;;;6.50;4.80;;;21.90;94.60;;;;;;4953127;29;20074;-94
2022/09/06 04:43:58;;;;;;;5.47;4.53;;;21.90;94.60;;;;;;4970106;28;20032;-94
2022/09/06 04:46:27;;;;;;;6.65;4.45;;;21.90;94.60;;;;;;4954275;28;20036;-94
2022/09/06 04:48:54;;;;;;;6.05;4.63;;;21.90;94.60;;;;;;4956916;29;20024;-94
2022/09/06 04:51:20;;;;;;;6.80;5.20;;;21.90;94.60;;;;;;4972892;28;20031;-94
2022/09/06 04:53:47;;;;;;;6.10;5.13;;;21.90;94.70;;;;;;4974107;28;20038;-95
2022/09/06 04:56:15;;;;;;;7.13;4.90;;;21.90;94.80;;;;;;4973978;28;20032;-94
2022/09/06 04:58:42;;;;;;;6.82;4.90;;;22.00;94.80;;;;;;4967480;29;20043;-95
2022/09/06 05:01:10;;;;;;;5.68;4.55;;;22.00;94.90;;;;;;4960813;29;20087;-96
2022/09/06 05:03:36;;;;;;;8.50;5.22;;;21.90;94.80;;;;;;5030460;23;20050;-87
2022/09/06 05:06:06;;;;;;;7.25;4.72;;;21.90;94.90;;;;;;5016903;28;20057;-87
2022/09/06 05:08:32;;;;;;;7.28;5.10;;;21.90;94.90;;;;;;5019018;28;20022;-88
2022/09/06 05:10:57;;;;;;;8.07;5.13;;;21.90;94.80;;;;;;5022463;28;20064;-87
2022/09/06 05:13:23;;;;;;;6.07;4.50;;;21.90;94.80;;;;;;5033604;28;20030;-87
2022/09/06 05:15:49;;;;;;;6.18;5.07;;;21.90;94.80;;;;;;5024180;28;20026;-87
2022/09/06 05:18:14;;;;;;;8.20;5.55;;;21.90;94.80;;;;;;5038178;28;20034;-87
2022/09/06 05:20:40;;;;;;;8.95;5.28;;;21.90;94.90;;;;;;4999654;28;20062;-88
2022/09/06 05:23:05;;;;;;;6.05;4.78;;;21.90;94.90;;;;;;5016393;28;20121;-87
2022/09/06 05:25:31;;;;;;;5.68;5.07;;;21.80;95.00;;;;;;5003196;28;20099;-88
2022/09/06 05:27:57;;;;;;;6.57;5.22;;;21.80;95.10;;;;;;5025948;28;20037;-88
2022/09/06 05:30:22;;;;;;;6.45;4.93;;;21.80;95.10;;;;;;5017124;28;20026;-87
2022/09/06 05:32:49;;;;;;;6.50;5.18;;;21.80;95.10;;;;;;5015589;28;20029;-88
2022/09/06 05:35:15;;;;;;;7.90;5.47;;;21.80;95.10;;;;;;5015632;28;20382;-88
2022/09/06 05:37:41;;;;;;;6.82;5.32;;;21.80;95.10;;;;;;5032518;28;20033;-89
2022/09/06 05:40:07;;;;;;;6.90;4.82;;;21.80;95.20;;;;;;5017513;28;20037;-88
2022/09/06 05:42:32;;;;;;;7.47;4.97;;;21.80;95.20;;;;;;5036316;28;20024;-88
2022/09/06 05:44:58;;;;;;;9.18;5.32;;;21.80;95.20;;;;;;5034492;28;20026;-87
2022/09/06 05:47:24;;;;;;;6.25;4.88;;;21.80;95.30;;;;;;5034884;28;20441;-86
2022/09/06 05:49:50;;;;;;;9.48;4.97;;;21.70;95.20;;;;;;5019572;28;20033;-87
2022/09/06 05:52:17;;;;;;;6.80;4.95;;;21.70;95.30;;;;;;5002600;28;20037;-87
2022/09/06 05:54:42;;;;;;;7.57;5.20;;;21.70;95.40;;;;;;5018003;28;20026;-87
2022/09/06 05:57:08;;;;;;;7.63;5.78;;;21.70;95.40;;;;;;5037153;28;20029;-87
2022/09/06 05:59:34;;;;;;;8.68;4.93;;;21.70;95.40;;;;;;5000374;28;20026;-88
2022/09/06 06:01:59;;;;;;;8.77;5.32;;;21.60;95.50;;;;;;5018672;28;20026;-88
2022/09/06 06:04:25;;;;;;;8.35;6.07;;;21.60;95.50;;;;;;5021476;28;20032;-88
2022/09/06 06:06:51;;;;;;;6.40;5.70;;;21.60;95.90;;;;;;5020205;28;20523;-88
2022/09/06 06:09:16;;;;;;;6.63;5.80;;;21.60;95.70;;;;;;5019293;28;20508;-87
2022/09/06 06:11:42;;;;;;;9.00;6.10;;;21.60;95.80;;;;;;5035156;28;20502;-87
2022/09/06 06:14:08;;;;;;;8.55;6.43;;;21.60;95.80;;;;;;5019074;28;20030;-87
2022/09/06 06:16:34;;;;;;;11.00;7.18;;;21.60;95.80;;;;;;5017756;28;20370;-88
2022/09/06 06:19:00;;;;;;;8.20;6.07;;;21.60;95.90;;;;;;5037627;28;20041;-88
2022/09/06 06:21:29;;;;;;;7.47;6.70;;;21.50;95.90;;;;;;5019878;28;20445;-87
2022/09/06 06:23:59;;;;;;;9.73;7.13;;;21.60;95.80;;;;;;5036248;28;20033;-89
2022/09/06 06:26:25;;;;;;;11.27;7.30;;;21.50;95.90;;;;;;5035023;28;20018;-87
2022/09/06 06:28:52;;;;;;;8.93;6.78;;;21.60;96.00;;;;;;5035015;28;20025;-87
2022/09/06 06:31:20;;;;;;;8.23;7.00;;;21.60;96.10;;;;;;5018231;28;20040;-86
2022/09/06 06:33:46;;;;;;;8.07;7.15;;;21.50;96.20;;;;;;5034137;28;20488;-86
2022/09/06 06:36:14;;;;;;;8.43;6.78;;;21.50;96.30;;;;;;5018357;28;20029;-87
2022/09/06 06:38:42;;;;;;;9.90;7.82;;;21.60;96.40;;;;;;5017745;28;20080;-87
2022/09/06 06:41:10;;;;;;;8.52;7.47;;;21.50;96.50;;;;;;5034332;28;20033;-86
2022/09/06 06:43:36;;;;;;;9.30;7.32;;;21.60;96.60;;;;;;5017938;28;20030;-90
2022/09/06 06:46:16;;;;;;;10.13;7.32;;;21.60;96.70;;;;;;5021576;28;20075;-86
2022/09/06 06:48:43;;;;;;;8.33;7.53;;;21.60;96.70;;;;;;5017456;28;20040;-87
2022/09/06 06:51:11;;;;;;;8.95;8.05;;;21.60;96.70;;;;;;5022081;28;20121;-85
2022/09/06 06:53:37;;;;;;;9.95;7.63;;;21.60;96.80;;;;;;5035247;28;20049;-86
2022/09/06 06:56:21;;;;;;;8.90;7.55;;;21.60;96.80;;;;;;5017579;28;20025;-85
2022/09/06 06:58:48;;;;;;;13.98;7.72;;;21.60;96.90;;;;;;5033906;28;20087;-86
2022/09/06 07:01:16;;;;;;;10.73;8.35;;;21.60;97.10;;;;;;5033985;28;20029;-85
2022/09/06 07:03:41;;;;;;;9.63;7.13;;;21.70;97.10;;;;;;5029051;28;20049;-87
2022/09/06 07:06:07;;;;;;;9.20;7.80;;;21.70;97.10;;;;;;5016223;28;20113;-87
2022/09/06 07:08:34;;;;;;;10.02;7.60;;;21.70;97.10;;;;;;5031583;28;20037;-87
2022/09/06 07:11:02;;;;;;;9.07;7.07;;;21.70;97.00;;;;;;5030819;28;20485;-88
2022/09/06 07:13:27;;;;;;;9.35;8.35;;;21.70;96.90;;;;;;5016270;28;20527;-87
2022/09/06 07:16:06;;;;;;;10.02;8.20;;;21.60;97.00;;;;;;5008483;28;20062;-86
2022/09/06 07:18:32;;;;;;;8.82;7.32;;;21.60;96.80;;;;;;5010072;28;20378;-87
2022/09/06 07:20:58;;;;;;;9.25;7.53;;;21.50;96.60;;;;;;5014084;28;20036;-87
2022/09/06 07:23:24;;;;;;;9.60;7.90;;;21.50;96.70;;;;;;5016037;28;20030;-88
2022/09/06 07:25:49;;;;;;;9.48;7.90;;;21.50;96.80;;;;;;5014860;28;20030;-88
2022/09/06 07:28:15;;;;;;;9.35;7.20;;;21.60;96.90;;;;;;5016856;28;20092;-87
2022/09/06 07:30:41;;;;;;;8.82;6.97;;;21.60;96.80;;;;;;5016284;28;20022;-87
2022/09/06 07:33:07;;;;;;;7.22;5.82;;;21.50;96.70;;;;;;5019247;28;20030;-88
2022/09/06 07:35:33;;;;;;;10.85;7.80;;;21.50;96.70;;;;;;5002699;28;20117;-88
2022/09/06 07:38:00;;;;;;;8.50;7.10;;;21.50;96.90;;;;;;5021409;28;20033;-87
2022/09/06 07:40:28;;;;;;;9.73;7.68;;;21.50;97.00;;;;;;5024030;28;20030;-87
2022/09/06 07:42:58;;;;;;;8.90;7.55;;;21.60;97.00;;;;;;5027200;28;20033;-89
2022/09/06 07:45:25;;;;;;;10.15;7.50;;;21.60;97.00;;;;;;5024278;28;20083;-88
2022/09/06 07:48:00;;;;;;;10.85;7.50;;;21.60;97.00;;;;;;5025923;28;20069;-90
2022/09/06 07:50:27;;;;;;;9.32;7.25;;;21.60;96.90;;;;;;5040896;28;20096;-89
2022/09/06 07:52:53;;;;;;;11.30;6.05;;;21.70;97.10;;;;;;5040350;28;20026;-89
2022/09/06 07:55:18;;;;;;;10.43;6.20;;;21.70;96.80;;;;;;5013125;28;20036;-89
2022/09/06 07:57:44;;;;;;;9.25;7.30;;;21.70;96.60;;;;;;5039044;28;20031;-90
2022/09/06 08:00:11;;;;;;;8.23;6.50;;;21.70;96.50;;;;;;5017282;28;20026;-93
2022/09/06 08:02:36;;;;;;;8.05;7.00;;;21.80;96.60;;;;;;5033412;28;20034;-89
2022/09/06 08:05:03;;;;;;;8.43;6.13;;;21.80;96.50;;;;;;5017909;28;20081;-89
2022/09/06 08:07:28;;;;;;;7.88;6.50;;;21.90;96.60;;;;;;5005786;28;20030;-86
2022/09/06 08:09:54;;;;;;;9.65;6.13;;;21.90;95.90;;;;;;5014160;28;20034;-87
2022/09/06 08:12:20;;;;;;;8.50;5.70;;;21.90;95.60;;;;;;5033107;28;20010;-88
2022/09/06 08:14:45;;;;;;;11.18;6.68;;;22.00;95.80;;;;;;5014940;28;20030;-88
2022/09/06 08:17:11;;;;;;;9.43;5.95;;;22.00;95.70;;;;;;5014654;28;20035;-87
2022/09/06 08:19:37;;;;;;;7.43;5.90;;;22.10;95.80;;;;;;5028622;28;20014;-88
2022/09/06 08:22:02;;;;;;;7.63;5.80;;;22.20;95.80;;;;;;5022887;28;20022;-89
2022/09/06 08:24:28;;;;;;;10.20;6.00;;;22.30;95.70;;;;;;5039607;28;20033;-90
2022/09/06 08:26:54;;;;;;;7.45;5.88;;;22.30;95.70;;;;;;5021121;28;20334;-88
2022/09/06 08:29:19;;;;;;;10.77;6.15;;;22.40;95.60;;;;;;5019947;28;20034;-89
2022/09/06 08:31:45;;;;;;;10.23;6.25;;;22.40;95.40;;;;;;5022842;28;20041;-89
2022/09/06 08:34:13;;;;;;;9.43;5.90;;;22.50;95.30;;;;;;5056551;28;20009;-90
2022/09/06 08:36:39;;;;;;;11.95;5.70;;;22.60;95.20;;;;;;5036420;28;20489;-88
2022/09/06 08:39:07;;;;;;;8.70;5.50;;;22.60;95.10;;;;;;5038143;28;20030;-88
2022/09/06 08:41:46;;;;;;;10.25;6.28;;;22.70;94.90;;;;;;5031783;28;20033;-88
2022/09/06 08:44:16;;;;;;;9.07;5.60;;;22.80;94.70;;;;;;5046023;28;20022;-87
2022/09/06 08:46:57;;;;;;;6.85;4.88;;;22.80;94.50;;;;;;5037767;28;20150;-88
2022/09/06 08:49:32;;;;;;;8.52;5.28;;;22.90;94.60;;;;;;5005262;28;20041;-90
2022/09/06 08:52:33;;;;;;;9.23;5.25;;;23.00;94.60;;;;;;5017192;28;20026;-89
2022/09/06 08:55:15;;;;;;;;;;;23.10;94.20;;;;;;4985239;28;20057;-89
2022/09/06 08:57:50;;;;;;;6.97;4.18;;;23.20;93.80;;;;;;5010305;28;19906;-89
2022/09/06 09:00:24;;;;;;;5.85;4.25;;;23.20;93.40;;;;;;5013375;28;20026;-88
2022/09/06 09:03:07;;;;;;;7.15;4.53;;;23.30;93.30;;;;;;5015236;28;20089;-87
2022/09/06 09:05:36;;;;;;;5.88;4.22;;;23.40;93.10;;;;;;5020055;28;20036;-89
2022/09/06 09:08:29;;;;;;;8.38;4.50;;;23.50;93.00;;;;;;5036919;28;20025;-90
2022/09/06 09:11:01;;;;;;;8.50;4.45;;;23.50;92.80;;;;;;5034899;28;20075;-88
2022/09/06 09:13:39;;;;;;;5.95;3.97;;;23.60;92.60;;;;;;5033981;28;20022;-88
2022/09/06 09:16:05;;;;;;;4.70;3.50;;;23.70;92.30;;;;;;5019331;28;20067;-90
2022/09/06 09:18:34;;;;;;;5.22;3.80;;;23.80;91.80;;;;;;4987036;28;20025;-87
2022/09/06 09:21:00;;;;;;;5.65;3.40;;;23.80;91.50;;;;;;5019125;28;20032;-88
2022/09/06 09:23:29;;;;;;;6.07;3.80;;;23.90;91.20;;;;;;5019448;28;20030;-89
2022/09/06 09:26:02;;;;;;;5.80;3.30;;;24.00;91.30;;;;;;5036324;28;20009;-89
2022/09/06 09:28:27;;;;;;;7.97;3.60;;;24.10;91.20;;;;;;5019158;28;20068;-89
2022/09/06 09:30:56;;;;;;;6.40;3.45;;;24.20;90.40;;;;;;5015699;28;20072;-88
2022/09/06 09:33:21;;;;;;;5.63;3.17;;;24.30;90.00;;;;;;5008463;28;20029;-90
2022/09/06 09:35:47;;;;;;;7.05;3.63;;;24.40;90.00;;;;;;5036566;28;20068;-90
2022/09/06 09:38:20;;;;;;;5.80;3.28;;;24.40;88.80;;;;;;5019115;28;20116;-89
2022/09/06 09:41:04;;;;;;;7.05;3.17;;;24.50;87.40;;;;;;5035381;28;20171;-90
2022/09/06 09:43:39;;;;;;;5.28;2.75;;;24.60;87.00;;;;;;5018809;28;20035;-89
2022/09/06 09:46:23;;;;;;;5.28;2.95;;;24.60;86.70;;;;;;5018809;28;20021;-89
2022/09/06 09:49:09;;;;;;;11.00;3.30;;;24.80;86.40;;;;;;5017845;28;20045;-90
2022/09/06 09:51:43;;;;;;;3.95;2.47;;;24.90;85.70;;;;;;5019293;28;20040;-89
2022/09/06 09:54:11;;;;;;;4.70;2.67;;;24.90;85.40;;;;;;5019499;28;20017;-90
2022/09/06 09:56:40;;;;;;;6.07;2.95;;;25.00;84.90;;;;;;5037075;28;20052;-89
2022/09/06 09:59:17;;;;;;;7.65;2.67;;;25.10;84.00;;;;;;5019331;28;20469;-89
2022/09/06 10:01:43;;;;;;;5.63;2.92;;;25.20;84.00;;;;;;5036374;28;20096;-90
2022/09/06 10:04:15;;;;;;;5.78;3.05;;;25.30;83.00;;;;;;5018620;28;20073;-88
2022/09/06 10:06:42;;;;;;;5.30;3.00;;;25.30;82.90;;;;;;5036241;28;20021;-88
2022/09/06 10:09:18;;;;;;;8.85;3.00;;;25.40;82.90;;;;;;5018440;28;20533;-89
2022/09/06 10:11:48;;;;;;;4.78;2.80;;;25.50;83.50;;;;;;5018569;28;20092;-90
2022/09/06 10:14:42;;;;;;;6.15;2.60;;;25.60;83.70;;;;;;5018482;28;20037;-90
2022/09/06 10:17:17;;;;;;;4.72;2.28;;;25.70;83.10;;;;;;5014639;28;20474;-89
2022/09/06 10:19:45;;;;;;;6.40;2.13;;;25.70;80.80;;;;;;5001863;28;20032;-90
2022/09/06 10:22:42;;;;;;;2.35;1.88;;;25.80;79.90;;;;;;5017982;28;20053;-88
2022/09/06 10:25:20;;;;;;;6.70;2.30;;;25.90;79.30;;;;;;5015623;28;20041;-84
2022/09/06 10:28:04;;;;;;;3.22;1.92;;;26.00;80.00;;;;;;5016696;28;20029;-85
2022/09/06 10:30:33;;;;;;;5.65;2.60;;;26.10;80.20;;;;;;5034962;28;20022;-83
2022/09/06 10:33:26;;;;;;;3.05;1.98;;;26.10;79.30;;;;;;5016944;28;20137;-85
2022/09/06 10:35:55;;;;;;;5.75;2.40;;;26.30;79.00;;;;;;5016751;28;20605;-84
2022/09/06 10:38:50;;;;;;;5.00;2.35;;;26.30;78.20;;;;;;5017634;28;20025;-84
2022/09/06 10:41:40;;;;;;;3.95;2.47;;;26.40;76.80;;;;;;5005412;28;20483;-84
2022/09/06 10:44:26;;;;;;;4.90;2.70;;;26.50;75.80;;;;;;5033523;28;20053;-84
2022/09/06 10:46:58;;;;;;;3.95;2.45;;;26.60;76.60;;;;;;5016934;28;20373;-84
2022/09/06 10:49:25;;;;;;;4.93;2.28;;;26.60;76.30;;;;;;5033233;28;20026;-85
2022/09/06 10:51:59;;;;;;;4.15;2.30;;;26.70;76.00;;;;;;5000509;28;20029;-80
2022/09/06 10:54:25;;;;;;;3.20;2.08;;;26.80;75.90;;;;;;5033966;28;20021;-80
2022/09/06 10:57:26;;;;;;;4.70;2.40;;;26.80;76.20;;;;;;5006579;28;20034;-80
2022/09/06 11:00:05;;;;;;;4.55;2.55;;;27.00;77.00;;;;;;4988235;28;20068;-80
2022/09/06 11:02:44;;;;;;;5.43;2.30;;;27.10;76.20;;;;;;5016786;28;20516;-89
2022/09/06 11:05:24;;;;;;;6.60;2.85;;;27.20;75.70;;;;;;5018755;28;20073;-90
2022/09/06 11:08:19;;;;;;;5.47;2.60;;;27.20;75.40;;;;;;5021622;28;20034;-89
2022/09/06 11:10:48;;;;;;;3.25;2.30;;;27.40;74.30;;;;;;5029707;28;20125;-88
2022/09/06 11:13:27;;;;;;;4.60;2.70;;;27.50;73.50;;;;;;5052503;28;20500;-88
2022/09/06 11:16:30;;;;;;;4.93;2.13;;;27.50;73.00;;;;;;5018060;28;20100;-87
2022/09/06 11:19:01;;;;;;;4.47;2.63;;;27.60;71.20;;;;;;4990879;28;20209;-91
2022/09/06 11:22:02;;;;;;;4.68;2.20;;;27.70;70.60;;;;;;5035717;28;20022;-89
2022/09/06 11:24:33;;;;;;;;;;;27.70;70.50;;;;;;5026125;28;20031;-90
2022/09/06 11:27:16;;;;;;;5.28;2.17;;;27.80;69.60;;;;;;5034971;28;19963;-90
2022/09/06 11:29:45;;;;;;;4.50;1.85;;;27.80;70.70;;;;;;5018169;28;20083;-90
2022/09/06 11:32:34;;;;;;;3.33;2.20;;;27.90;71.00;;;;;;5035321;28;20420;-90
2022/09/06 11:35:06;;;;;;;3.78;1.95;;;28.00;70.20;;;;;;5017622;28;20036;-90
2022/09/06 11:37:35;;;;;;;4.55;1.92;;;28.10;70.40;;;;;;5035022;28;20025;-91
2022/09/06 11:40:06;;;;;;;4.72;2.20;;;28.20;70.50;;;;;;5017457;28;20049;-90
2022/09/06 11:43:01;;;;;;;5.30;1.98;;;28.30;70.40;;;;;;5017606;28;20350;-90
2022/09/06 11:46:00;;;;;;;6.78;1.98;;;28.40;70.60;;;;;;5034091;28;20465;-90
2022/09/06 11:48:25;;;;;;;3.30;1.70;;;28.50;70.20;;;;;;4983677;28;20548;-89
2022/09/06 11:50:57;;;;;;;4.05;2.05;;;28.60;69.90;;;;;;5031437;28;20021;-90
2022/09/06 11:53:25;;;;;;;10.68;2.15;;;28.70;69.50;;;;;;5035654;28;20029;-90
2022/09/06 11:56:00;;;;;;;3.75;1.75;;;28.70;68.70;;;;;;5018771;28;20109;-90
2022/09/06 11:58:37;;;;;;;5.03;1.80;;;28.80;68.60;;;;;;5023080;28;20029;-91
2022/09/06 12:01:12;;;;;;;5.43;2.10;;;28.90;69.20;;;;;;5029483;28;20029;-93
2022/09/06 12:03:47;;;;;;;5.85;2.03;;;29.10;69.50;;;;;;5052507;28;20098;-90
2022/09/06 12:06:12;;;;;;;3.63;2.03;;;29.10;69.20;;;;;;5026994;28;20025;-90
2022/09/06 12:08:38;;;;;;;12.68;2.45;;;29.20;69.10;;;;;;5036349;28;20366;-91
2022/09/06 12:11:20;;;;;;;4.18;1.80;;;29.30;68.20;;;;;;5018021;28;20049;-90
2022/09/06 12:13:54;;;;;;;4.95;2.00;;;29.40;68.40;;;;;;5033831;28;20026;-90
2022/09/06 12:16:20;;;;;;;6.03;2.30;;;29.50;67.50;;;;;;5035533;28;20091;-91
2022/09/06 12:18:46;;;;;;;3.60;2.05;;;29.50;66.60;;;;;;5034257;28;20052;-89
2022/09/06 12:21:34;;;;;;;3.15;1.67;;;29.60;67.50;;;;;;5017502;28;20033;-90
2022/09/06 12:24:01;;;;;;;6.63;2.22;;;29.70;67.90;;;;;;5017256;28;20103;-89
2022/09/06 12:26:49;;;;;;;4.00;1.98;;;29.70;68.00;;;;;;5017224;28;20135;-87
2022/09/06 12:29:22;;;;;;;4.45;2.00;;;29.80;67.50;;;;;;5016278;28;20520;-89
2022/09/06 12:31:56;;;;;;;6.88;2.67;;;29.90;67.40;;;;;;5032604;28;20064;-90
2022/09/06 12:34:25;;;;;;;3.67;2.20;;;30.00;67.10;;;;;;5031553;28;20638;-87
2022/09/06 12:36:56;;;;;;;4.55;2.00;;;30.10;66.30;;;;;;5032765;28;20026;-89
2022/09/06 12:39:22;;;;;;;7.60;2.55;;;30.20;65.50;;;;;;5033884;28;20109;-88
2022/09/06 12:42:09;;;;;;;5.93;2.40;;;30.20;65.50;;;;;;5033236;28;20076;-89
2022/09/06 12:44:47;;;;;;;6.95;2.13;;;30.40;66.10;;;;;;5032807;28;20017;-89
2022/09/06 12:47:27;;;;;;;3.20;2.00;;;30.40;66.00;;;;;;5033992;28;20071;-90
2022/09/06 12:50:16;;;;;;;5.80;2.10;;;30.50;65.90;;;;;;5028509;28;20026;-90
2022/09/06 12:52:54;;;;;;;3.13;2.03;;;30.50;65.60;;;;;;5032118;28;20022;-89
2022/09/06 12:55:27;;;;;;;3.70;2.00;;;30.60;65.60;;;;;;5029958;28;20026;-89
2022/09/06 12:57:58;;;;;;;6.63;2.08;;;30.70;65.50;;;;;;5033246;28;20447;-89
2022/09/06 13:00:29;;;;;;;6.13;2.88;;;30.80;65.10;;;;;;5035108;28;20028;-89
2022/09/06 13:03:02;;;;;;;3.53;2.00;;;30.90;64.80;;;;;;5033671;28;20116;-89
2022/09/06 13:05:28;;;;;;;5.88;2.35;;;30.90;64.40;;;;;;5018566;28;20040;-90
2022/09/06 13:08:00;;;;;;;5.35;3.00;;;31.00;64.20;;;;;;5007758;28;20080;-89
2022/09/06 13:10:31;;;;;;;4.78;2.58;;;31.00;63.70;;;;;;5024691;28;20033;-89
2022/09/06 13:12:57;;;;;;;3.83;2.40;;;31.10;63.90;;;;;;5040450;28;20029;-90